Terminal Aerodrome Forecast
Issued by NWS Shreveport, LA

Home | Current Version | Previous Version | Text Only | Print | Product List | Glossary On
Versions: 1 2 3 4 5 6 7 8 9 10 11 12 13 14 15
197
FTUS44 KSHV 280520
TAFSHV
TAF
KSHV 280520Z 2806/2906 12005KT P6SM FEW045 SCT280
     FM281400 15006KT P6SM SCT040 SCT250
     FM281800 15009G16KT P6SM SCT050 SCT250
     FM290000 14007KT P6SM SCT250=

USA.gov is the U.S. government's official web portal to all federal, state and local government web resources and services.